createdAt,value
2017-10-07T00:00:27.528Z,82.79
2017-10-07T00:02:53.760Z,81.74
2017-10-07T00:05:19.986Z,82.64
2017-10-07T00:07:46.240Z,83.13
2017-10-07T00:10:12.467Z,83.02
2017-10-07T00:12:38.696Z,84.86
2017-10-07T00:15:04.912Z,84.49
2017-10-07T00:17:31.176Z,84.51
2017-10-07T00:19:57.423Z,83.46
2017-10-07T00:22:23.642Z,83.67
2017-10-07T00:24:49.859Z,83.07
2017-10-07T00:27:16.083Z,82.76
2017-10-07T00:29:42.323Z,82.92
2017-10-07T00:32:08.545Z,82.44
2017-10-07T00:34:34.891Z,83.43
2017-10-07T00:37:01.123Z,82.67
2017-10-07T00:39:27.370Z,83.44
2017-10-07T00:41:53.639Z,83.58
2017-10-07T00:44:19.839Z,83.81
2017-10-07T00:46:46.054Z,85.72
2017-10-07T00:49:12.275Z,83.91
2017-10-07T00:51:38.513Z,83.67
2017-10-07T00:54:04.811Z,84.59
2017-10-07T00:56:31.165Z,83.91
2017-10-07T00:58:57.403Z,83.51
2017-10-07T01:01:23.639Z,83.87
2017-10-07T01:03:49.890Z,83.96
2017-10-07T01:06:16.131Z,83.64
2017-10-07T01:08:42.375Z,84.32
2017-10-07T01:11:08.614Z,83.32
2017-10-07T01:13:34.851Z,83.60
2017-10-07T01:16:01.097Z,84.26
2017-10-07T01:18:27.386Z,84.56
2017-10-07T01:20:53.626Z,84.06
2017-10-07T01:23:19.888Z,84.17
2017-10-07T01:25:46.117Z,83.95
2017-10-07T01:28:12.344Z,83.63
2017-10-07T01:30:38.590Z,83.15
2017-10-07T01:33:04.828Z,85.18
2017-10-07T01:35:31.069Z,85.79
2017-10-07T01:37:57.326Z,86.02
2017-10-07T01:40:23.564Z,86.88
2017-10-07T01:42:49.861Z,86.20
2017-10-07T01:45:16.103Z,86.92
2017-10-07T01:47:42.325Z,87.63
2017-10-07T01:50:08.549Z,87.40
2017-10-07T01:52:34.793Z,87.58
2017-10-07T01:55:01.031Z,88.56
2017-10-07T01:57:27.269Z,87.16
2017-10-07T01:59:53.715Z,86.51
2017-10-07T02:02:19.959Z,87.14
2017-10-07T02:04:46.192Z,87.87
2017-10-07T02:07:12.418Z,87.97
2017-10-07T02:09:38.655Z,87.87
2017-10-07T02:12:04.894Z,87.94
2017-10-07T02:14:31.154Z,88.06
2017-10-07T02:16:57.383Z,87.58
2017-10-07T02:19:23.661Z,87.89
2017-10-07T02:21:49.910Z,88.29
2017-10-07T02:24:16.137Z,88.08
2017-10-07T02:26:42.443Z,88.39
2017-10-07T02:29:08.661Z,89.78
2017-10-07T02:31:34.937Z,89.56
2017-10-07T02:34:01.212Z,89.62
2017-10-07T02:36:27.440Z,89.33
2017-10-07T02:38:53.721Z,88.58
2017-10-07T02:41:19.939Z,89.35
2017-10-07T02:43:46.151Z,89.47
2017-10-07T02:46:12.372Z,89.47
2017-10-07T02:48:38.612Z,88.62
2017-10-07T02:51:04.838Z,88.88
2017-10-07T02:53:31.059Z,89.88
2017-10-07T02:55:57.417Z,91.42
2017-10-07T02:58:23.680Z,91.00
2017-10-07T03:00:50.042Z,90.58
2017-10-07T03:03:16.300Z,91.18
2017-10-07T03:05:42.539Z,91.08
2017-10-07T03:08:08.775Z,90.46
2017-10-07T03:10:35.021Z,90.21
2017-10-07T03:13:01.248Z,90.55
2017-10-07T03:15:27.477Z,89.54
2017-10-07T03:17:53.704Z,89.29
2017-10-07T03:20:19.976Z,89.10
2017-10-07T03:22:46.208Z,89.39
2017-10-07T03:25:12.446Z,90.04
2017-10-07T03:27:38.689Z,90.76
2017-10-07T03:30:04.937Z,90.47
2017-10-07T03:32:31.184Z,90.06
2017-10-07T03:34:57.414Z,89.72
2017-10-07T03:37:23.635Z,90.09
2017-10-07T03:39:49.849Z,90.37
2017-10-07T03:42:16.076Z,90.18
2017-10-07T03:44:42.359Z,90.50
2017-10-07T03:47:08.583Z,90.86
2017-10-07T03:49:34.829Z,90.58
2017-10-07T03:52:01.082Z,89.40
2017-10-07T03:54:27.483Z,89.86
2017-10-07T03:56:53.703Z,91.20
2017-10-07T03:59:19.932Z,91.45
2017-10-07T04:01:46.182Z,91.67
2017-10-07T04:04:12.417Z,91.96
2017-10-07T04:06:38.669Z,91.93
2017-10-07T04:09:04.933Z,92.46
2017-10-07T04:11:31.167Z,93.49
2017-10-07T04:13:57.373Z,93.66
2017-10-07T04:16:23.637Z,93.15
2017-10-07T04:18:49.867Z,92.09
2017-10-07T04:21:16.167Z,92.34
2017-10-07T04:23:42.397Z,91.29
2017-10-07T04:26:08.623Z,90.83
2017-10-07T04:28:34.878Z,89.95
2017-10-07T04:31:01.110Z,90.59
2017-10-07T04:33:27.334Z,85.74
2017-10-07T04:35:53.568Z,86.28
2017-10-07T04:38:19.789Z,85.66
2017-10-07T04:40:46.041Z,86.59
2017-10-07T04:43:12.276Z,87.70
2017-10-07T04:45:38.568Z,86.58
2017-10-07T04:48:04.811Z,87.56
2017-10-07T04:50:31.045Z,88.17
2017-10-07T04:52:57.282Z,87.95
2017-10-07T04:55:23.491Z,88.35
2017-10-07T04:57:49.712Z,87.90
2017-10-07T05:00:15.938Z,87.36
2017-10-07T05:02:42.155Z,88.23
2017-10-07T05:05:08.379Z,88.21
2017-10-07T05:07:34.619Z,87.79
2017-10-07T05:10:00.992Z,86.12
2017-10-07T05:12:27.221Z,85.81
2017-10-07T05:14:53.439Z,85.71
2017-10-07T05:17:19.694Z,84.46
2017-10-07T05:19:45.903Z,85.04
2017-10-07T05:22:12.138Z,86.44
2017-10-07T05:24:38.468Z,87.80
2017-10-07T05:27:04.715Z,87.25
2017-10-07T05:29:31.035Z,85.71
2017-10-07T05:31:57.482Z,82.63
2017-10-07T05:34:23.782Z,82.88
2017-10-07T05:36:50.052Z,84.22
2017-10-07T05:39:16.284Z,83.22
2017-10-07T05:41:42.516Z,85.05
2017-10-07T05:44:08.860Z,84.71
2017-10-07T05:46:35.235Z,85.18
2017-10-07T05:49:01.467Z,85.63
2017-10-07T05:51:27.722Z,84.51
2017-10-07T05:53:53.999Z,85.75
2017-10-07T05:56:20.235Z,87.11
2017-10-07T05:58:46.473Z,85.81
2017-10-07T06:01:12.837Z,85.91
2017-10-07T06:03:39.068Z,86.32
2017-10-07T06:06:05.304Z,85.71
2017-10-07T06:08:31.541Z,86.83
2017-10-07T06:10:57.810Z,84.71
2017-10-07T06:13:24.043Z,85.97
2017-10-07T06:15:50.247Z,86.65
2017-10-07T06:18:16.464Z,86.52
2017-10-07T06:20:42.685Z,86.86
2017-10-07T06:23:08.905Z,85.48
2017-10-07T06:25:35.223Z,85.72
2017-10-07T06:28:01.459Z,87.22
2017-10-07T06:30:27.677Z,86.68
2017-10-07T06:32:53.882Z,86.63
2017-10-07T06:35:20.117Z,86.29
2017-10-07T06:37:46.353Z,87.36
2017-10-07T06:40:12.567Z,87.53
2017-10-07T06:42:38.793Z,86.26
2017-10-07T06:45:05.097Z,86.45
2017-10-07T06:47:31.352Z,85.42
2017-10-07T06:49:57.561Z,85.04
2017-10-07T06:52:23.762Z,87.30
2017-10-07T06:54:49.992Z,86.53
2017-10-07T06:57:16.214Z,86.11
2017-10-07T06:59:42.435Z,85.98
2017-10-07T07:02:08.679Z,87.41
2017-10-07T07:04:34.957Z,86.22
2017-10-07T07:07:01.177Z,86.50
2017-10-07T07:09:27.413Z,87.68
2017-10-07T07:11:53.684Z,88.50
2017-10-07T07:14:19.898Z,89.07
2017-10-07T07:16:46.134Z,89.01
2017-10-07T07:19:12.420Z,90.09
2017-10-07T07:21:38.765Z,90.38
2017-10-07T07:24:05.066Z,88.34
2017-10-07T07:26:31.337Z,89.02
2017-10-07T07:28:57.567Z,89.72
2017-10-07T07:31:23.825Z,89.42
2017-10-07T07:33:50.108Z,89.21
2017-10-07T07:36:16.321Z,89.14
2017-10-07T07:38:42.621Z,89.64
2017-10-07T07:41:08.844Z,90.62
2017-10-07T07:43:35.046Z,91.34
2017-10-07T07:46:01.318Z,90.76
2017-10-07T07:48:27.512Z,91.72
2017-10-07T07:50:53.777Z,92.22
2017-10-07T07:53:20.002Z,92.79
2017-10-07T07:55:46.194Z,92.99
2017-10-07T07:58:12.424Z,93.07
2017-10-07T08:00:38.649Z,91.79
2017-10-07T08:03:04.905Z,90.76
2017-10-07T08:05:31.120Z,92.31
2017-10-07T08:07:57.324Z,92.11
2017-10-07T08:10:23.578Z,91.15
2017-10-07T08:12:49.799Z,89.48
2017-10-07T08:15:16.083Z,89.40
2017-10-07T08:17:42.323Z,90.45
2017-10-07T08:20:08.655Z,91.41
2017-10-07T08:22:34.899Z,91.39
2017-10-07T08:25:01.105Z,91.39
2017-10-07T08:27:27.345Z,91.50
2017-10-07T08:29:53.570Z,90.55
2017-10-07T08:32:19.804Z,91.90
2017-10-07T08:34:46.057Z,91.79
2017-10-07T08:37:12.295Z,91.52
2017-10-07T08:39:38.565Z,91.91
2017-10-07T08:42:04.821Z,90.90
2017-10-07T08:44:31.069Z,91.97
2017-10-07T08:46:57.395Z,92.04
2017-10-07T08:49:23.630Z,91.52
2017-10-07T08:51:49.876Z,91.68
2017-10-07T08:54:16.079Z,92.63
2017-10-07T08:56:42.455Z,91.83
2017-10-07T08:59:08.730Z,91.81
2017-10-07T09:01:34.962Z,92.09
2017-10-07T09:04:01.200Z,92.56
2017-10-07T09:06:27.436Z,92.51
2017-10-07T09:08:53.774Z,91.15
2017-10-07T09:11:20.068Z,92.76
2017-10-07T09:13:46.292Z,91.79
2017-10-07T09:16:12.715Z,91.23
2017-10-07T09:18:38.944Z,91.71
2017-10-07T09:21:05.196Z,91.67
2017-10-07T09:23:31.434Z,92.59
2017-10-07T09:25:57.652Z,92.87
2017-10-07T09:28:23.853Z,92.93
2017-10-07T09:30:50.123Z,93.06
2017-10-07T09:33:16.360Z,93.06
2017-10-07T09:35:42.594Z,92.37
2017-10-07T09:38:08.807Z,91.78
2017-10-07T09:40:35.079Z,90.64
2017-10-07T09:43:01.478Z,90.54
2017-10-07T09:45:27.683Z,89.07
2017-10-07T09:47:53.933Z,88.36
2017-10-07T09:50:20.132Z,94.17
2017-10-07T09:52:46.391Z,89.35
2017-10-07T09:55:12.592Z,90.54
2017-10-07T09:57:38.836Z,90.87
2017-10-07T10:00:05.054Z,91.81
2017-10-07T10:02:31.291Z,91.72
2017-10-07T10:04:57.489Z,91.43
2017-10-07T10:07:23.689Z,91.34
2017-10-07T10:09:49.913Z,92.22
2017-10-07T10:12:16.142Z,92.09
2017-10-07T10:14:42.354Z,92.67
2017-10-07T10:17:08.609Z,93.69
2017-10-07T10:19:34.984Z,93.52
2017-10-07T10:22:01.184Z,93.70
2017-10-07T10:24:27.425Z,92.85
2017-10-07T10:26:53.646Z,92.63
2017-10-07T10:29:19.846Z,91.90
2017-10-07T10:31:46.042Z,91.54
2017-10-07T10:34:12.325Z,92.33
2017-10-07T10:36:38.543Z,91.72
2017-10-07T10:39:04.764Z,92.83
2017-10-07T10:41:30.976Z,93.14
2017-10-07T10:43:57.234Z,93.22
2017-10-07T10:46:23.448Z,93.92
2017-10-07T10:48:49.709Z,93.37
2017-10-07T10:51:15.913Z,93.73
2017-10-07T10:53:42.148Z,94.61
2017-10-07T10:56:08.408Z,93.22
2017-10-07T10:58:34.632Z,93.95
2017-10-07T11:01:00.858Z,92.31
2017-10-07T11:03:27.068Z,91.53
2017-10-07T11:05:53.299Z,91.81
2017-10-07T11:08:19.537Z,90.80
2017-10-07T11:10:45.810Z,91.81
2017-10-07T11:13:12.041Z,92.15
2017-10-07T11:15:38.239Z,93.06
2017-10-07T11:18:04.471Z,91.65
2017-10-07T11:20:30.686Z,90.33
2017-10-07T11:22:56.915Z,91.27
2017-10-07T11:25:23.127Z,91.79
2017-10-07T11:27:49.339Z,89.83
2017-10-07T11:30:15.531Z,91.17
2017-10-07T11:32:41.741Z,91.00
2017-10-07T11:35:08.015Z,92.08
2017-10-07T11:37:34.265Z,92.32
2017-10-07T11:40:00.500Z,90.92
2017-10-07T11:42:26.724Z,90.89
2017-10-07T11:44:52.950Z,89.58
2017-10-07T11:47:19.199Z,91.07
2017-10-07T11:49:45.393Z,90.77
2017-10-07T11:52:11.595Z,91.86
2017-10-07T11:54:37.916Z,91.78
2017-10-07T11:57:04.176Z,93.18
2017-10-07T11:59:30.485Z,93.40
2017-10-07T12:01:56.700Z,92.41
2017-10-07T12:04:22.938Z,92.97
2017-10-07T12:06:49.187Z,93.74
2017-10-07T12:09:15.445Z,94.64
2017-10-07T12:11:41.700Z,94.55
2017-10-07T12:14:08.055Z,93.57
2017-10-07T12:16:34.568Z,93.85
2017-10-07T12:19:00.827Z,93.31
2017-10-07T12:21:27.253Z,91.80
2017-10-07T12:23:53.493Z,91.69
2017-10-07T12:26:19.697Z,92.52
2017-10-07T12:28:46.064Z,92.43
2017-10-07T12:31:12.331Z,90.99
2017-10-07T12:33:38.551Z,91.79
2017-10-07T12:36:04.772Z,92.08
2017-10-07T12:38:31.198Z,91.66
2017-10-07T12:40:57.436Z,93.52
2017-10-07T12:43:23.676Z,93.17
2017-10-07T12:45:49.926Z,90.71
2017-10-07T12:48:16.141Z,91.74
2017-10-07T12:50:42.421Z,91.98
2017-10-07T12:53:08.650Z,90.96
2017-10-07T12:55:34.857Z,90.79
2017-10-07T12:58:01.138Z,90.66
2017-10-07T13:00:27.362Z,92.08
2017-10-07T13:02:53.584Z,92.49
2017-10-07T13:05:20.476Z,93.16
2017-10-07T13:07:46.697Z,93.09
2017-10-07T13:10:12.920Z,92.75
2017-10-07T13:12:39.227Z,93.17
2017-10-07T13:15:05.419Z,93.84
2017-10-07T13:17:31.679Z,92.94
2017-10-07T13:19:57.914Z,93.49
2017-10-07T13:22:24.130Z,93.43
2017-10-07T13:24:50.565Z,93.69
2017-10-07T13:27:16.768Z,93.33
2017-10-07T13:29:42.991Z,94.60
2017-10-07T13:32:09.238Z,93.71
2017-10-07T13:34:35.464Z,92.28
2017-10-07T13:37:01.682Z,93.17
2017-10-07T13:39:27.918Z,94.00
2017-10-07T13:41:54.123Z,94.01
2017-10-07T13:44:20.344Z,94.15
2017-10-07T13:46:46.551Z,94.28
2017-10-07T13:49:12.946Z,95.11
2017-10-07T13:51:39.232Z,95.46
2017-10-07T13:54:05.433Z,94.88
2017-10-07T13:56:31.710Z,94.92
2017-10-07T13:58:57.916Z,94.35
2017-10-07T14:01:24.139Z,93.85
2017-10-07T14:03:50.358Z,93.63
2017-10-07T14:06:16.581Z,92.82
2017-10-07T14:08:42.822Z,92.47
2017-10-07T14:11:09.039Z,92.56
2017-10-07T14:13:35.237Z,93.64
2017-10-07T14:16:01.447Z,94.20
2017-10-07T14:18:27.665Z,93.74
2017-10-07T14:20:53.879Z,94.00
2017-10-07T14:23:20.274Z,94.05
2017-10-07T14:25:46.679Z,94.30
2017-10-07T14:28:12.951Z,94.33
2017-10-07T14:30:39.180Z,94.48
2017-10-07T14:33:05.443Z,94.11
2017-10-07T14:35:31.661Z,93.41
2017-10-07T14:37:57.979Z,93.48
2017-10-07T14:40:25.057Z,92.95
2017-10-07T14:42:52.586Z,93.50
2017-10-07T14:45:20.070Z,93.35
2017-10-07T14:47:47.739Z,94.29
2017-10-07T14:50:15.163Z,93.93
2017-10-07T14:52:42.340Z,94.17
2017-10-07T14:55:08.666Z,94.84
2017-10-07T14:57:34.928Z,94.37
2017-10-07T15:00:01.139Z,94.36
2017-10-07T15:02:27.445Z,94.80
2017-10-07T15:04:53.689Z,94.37
2017-10-07T15:07:20.094Z,94.58
2017-10-07T15:09:46.291Z,95.26
2017-10-07T15:12:12.535Z,95.28
2017-10-07T15:14:38.718Z,94.68
2017-10-07T15:17:05.017Z,92.84
2017-10-07T15:19:31.256Z,93.19
2017-10-07T15:21:57.457Z,92.95
2017-10-07T15:24:23.675Z,93.71
2017-10-07T15:26:49.940Z,94.37
2017-10-07T15:29:16.142Z,94.24
2017-10-07T15:31:42.364Z,94.73
2017-10-07T15:34:08.610Z,93.52
2017-10-07T15:36:34.821Z,93.94
2017-10-07T15:39:01.016Z,94.46
2017-10-07T15:41:27.249Z,94.19
2017-10-07T15:43:53.449Z,93.51
2017-10-07T15:46:19.652Z,93.77
2017-10-07T15:48:45.901Z,92.82
2017-10-07T15:51:12.087Z,92.82
2017-10-07T15:53:38.285Z,93.60
2017-10-07T15:56:04.534Z,93.34
2017-10-07T15:58:30.921Z,93.34
2017-10-07T16:00:57.129Z,93.38
2017-10-07T16:03:23.371Z,93.53
2017-10-07T16:05:49.588Z,93.86
2017-10-07T16:08:15.806Z,94.18
2017-10-07T16:10:42.067Z,94.44
2017-10-07T16:13:08.316Z,94.20
2017-10-07T16:15:34.536Z,94.20
2017-10-07T16:18:00.789Z,94.92
2017-10-07T16:20:26.989Z,94.80
2017-10-07T16:22:53.227Z,94.58
2017-10-07T16:25:19.482Z,95.06
2017-10-07T16:27:45.702Z,95.36
2017-10-07T16:30:11.905Z,95.00
2017-10-07T16:32:38.173Z,95.53
2017-10-07T16:35:04.372Z,95.49
2017-10-07T16:37:30.702Z,95.50
2017-10-07T16:39:56.953Z,95.64
2017-10-07T16:42:23.150Z,95.96
2017-10-07T16:44:49.353Z,95.84
2017-10-07T16:47:15.652Z,95.91
2017-10-07T16:49:41.854Z,96.57
2017-10-07T16:52:08.076Z,96.29
2017-10-07T16:54:34.336Z,95.87
2017-10-07T16:57:00.546Z,94.47
2017-10-07T16:59:26.754Z,94.74
2017-10-07T17:01:52.987Z,94.70
2017-10-07T17:04:19.202Z,95.27
2017-10-07T17:06:45.419Z,95.54
2017-10-07T17:09:11.673Z,95.06
2017-10-07T17:11:37.888Z,94.62
2017-10-07T17:14:04.104Z,95.51
2017-10-07T17:16:30.392Z,96.19
2017-10-07T17:18:56.588Z,96.23
2017-10-07T17:21:22.803Z,95.19
2017-10-07T17:23:49.058Z,95.28
2017-10-07T17:26:15.268Z,95.29
2017-10-07T17:28:41.506Z,94.93
2017-10-07T17:31:07.750Z,95.07
2017-10-07T17:33:33.967Z,94.27
2017-10-07T17:36:00.229Z,94.81
2017-10-07T17:38:26.478Z,94.91
2017-10-07T17:40:52.708Z,95.20
2017-10-07T17:43:18.949Z,95.71
2017-10-07T17:45:45.214Z,96.48
2017-10-07T17:48:11.432Z,96.45
2017-10-07T17:50:37.649Z,96.94
2017-10-07T17:53:03.893Z,96.65
2017-10-07T17:58:01.664Z,95.48
2017-10-07T18:00:27.896Z,95.12
2017-10-07T18:02:54.108Z,95.14
2017-10-07T18:05:20.307Z,94.75
2017-10-07T18:07:46.521Z,95.92
2017-10-07T18:10:12.736Z,96.32
2017-10-07T18:12:39.013Z,95.54
2017-10-07T18:15:05.246Z,95.30
2017-10-07T18:17:31.455Z,95.26
2017-10-07T18:19:57.644Z,94.70
2017-10-07T18:22:23.856Z,95.20
2017-10-07T18:24:50.074Z,96.07
2017-10-07T18:27:16.284Z,96.64
2017-10-07T18:29:42.493Z,95.85
2017-10-07T18:32:08.698Z,95.16
2017-10-07T18:34:34.897Z,95.76
2017-10-07T18:37:01.117Z,95.80
2017-10-07T18:39:27.404Z,94.94
2017-10-07T18:41:53.630Z,95.31
2017-10-07T18:44:19.862Z,95.38
2017-10-07T18:46:46.085Z,94.70
2017-10-07T18:49:12.291Z,94.71
2017-10-07T18:51:38.532Z,94.59
2017-10-07T18:54:04.741Z,95.86
2017-10-07T18:56:30.948Z,96.84
2017-10-07T18:58:57.159Z,95.98
2017-10-07T19:01:23.349Z,96.69
2017-10-07T19:03:49.712Z,96.96
2017-10-07T19:06:15.921Z,96.59
2017-10-07T19:08:42.139Z,97.53
2017-10-07T19:11:08.391Z,96.54
2017-10-07T19:13:34.610Z,96.17
2017-10-07T19:16:00.813Z,95.88
2017-10-07T19:18:27.014Z,96.48
2017-10-07T19:20:53.213Z,94.87
2017-10-07T19:23:19.489Z,95.57
2017-10-07T19:25:45.681Z,95.87
2017-10-07T19:28:11.919Z,96.03
2017-10-07T19:30:38.140Z,93.60
2017-10-07T19:33:04.361Z,95.11
2017-10-07T19:35:30.578Z,95.60
2017-10-07T19:37:56.793Z,95.94
2017-10-07T19:40:23.005Z,95.95
2017-10-07T19:42:49.209Z,95.38
2017-10-07T19:45:15.424Z,96.61
2017-10-07T19:47:41.801Z,96.63
2017-10-07T19:50:08.016Z,97.23
2017-10-07T19:52:34.240Z,96.86
2017-10-07T19:55:00.429Z,96.85
2017-10-07T19:57:26.652Z,96.84
2017-10-07T19:59:52.868Z,97.06
2017-10-07T20:02:19.059Z,97.04
2017-10-07T20:04:45.296Z,96.63
2017-10-07T20:07:11.509Z,96.34
2017-10-07T20:09:37.716Z,96.41
2017-10-07T20:12:03.965Z,96.45
2017-10-07T20:14:30.205Z,96.31
2017-10-07T20:16:56.429Z,96.62
2017-10-07T20:19:22.661Z,97.10
2017-10-07T20:21:48.887Z,97.08
2017-10-07T20:24:15.105Z,97.71
2017-10-07T20:26:41.351Z,96.44
2017-10-07T20:29:07.554Z,95.29
2017-10-07T20:31:33.781Z,95.01
2017-10-07T20:34:00.014Z,93.06
2017-10-07T20:36:26.257Z,94.75
2017-10-07T20:38:52.472Z,94.46
2017-10-07T20:41:18.721Z,95.33
2017-10-07T20:43:44.941Z,95.51
2017-10-07T20:46:11.166Z,95.95
2017-10-07T20:48:37.400Z,96.47
2017-10-07T20:51:03.612Z,97.03
2017-10-07T20:53:29.802Z,95.84
2017-10-07T20:55:56.027Z,95.15
2017-10-07T20:58:22.228Z,94.40
2017-10-07T21:00:48.428Z,94.31
2017-10-07T21:03:14.667Z,94.59
2017-10-07T21:05:40.892Z,94.75
2017-10-07T21:08:07.093Z,95.65
2017-10-07T21:10:33.317Z,95.22
2017-10-07T21:12:59.546Z,96.09
2017-10-07T21:15:25.801Z,96.33
2017-10-07T21:17:52.766Z,96.70
2017-10-07T21:20:18.973Z,96.64
2017-10-07T21:22:45.173Z,96.82
2017-10-07T21:25:11.408Z,97.26
2017-10-07T21:27:37.617Z,96.23
2017-10-07T21:30:03.842Z,96.90
2017-10-07T21:32:30.053Z,96.45
2017-10-07T21:34:56.265Z,96.84
2017-10-07T21:37:22.473Z,96.39
2017-10-07T21:39:48.709Z,95.89
2017-10-07T21:42:14.912Z,96.63
2017-10-07T21:44:41.093Z,96.91
2017-10-07T21:47:07.328Z,97.45
2017-10-07T21:49:33.632Z,97.45
2017-10-07T21:51:59.850Z,97.33
2017-10-07T21:54:26.078Z,97.40
2017-10-07T21:56:52.296Z,97.74
2017-10-07T21:59:18.532Z,98.03
2017-10-07T22:01:44.743Z,98.25
2017-10-07T22:04:10.969Z,98.05
2017-10-07T22:06:37.179Z,97.45
2017-10-07T22:09:03.399Z,97.70
2017-10-07T22:11:29.611Z,97.54
2017-10-07T22:13:55.881Z,97.42
2017-10-07T22:16:22.093Z,97.36
2017-10-07T22:18:48.296Z,97.28
2017-10-07T22:21:14.513Z,97.14
2017-10-07T22:23:40.775Z,96.89
2017-10-07T22:26:06.996Z,96.91
2017-10-07T22:28:33.201Z,97.03
2017-10-07T22:30:59.428Z,97.03
2017-10-07T22:33:25.649Z,96.86
2017-10-07T22:35:51.970Z,96.42
2017-10-07T22:38:18.245Z,96.34
2017-10-07T22:40:44.508Z,96.92
2017-10-07T22:43:10.746Z,96.34
2017-10-07T22:45:36.964Z,96.20
2017-10-07T22:48:03.170Z,95.80
2017-10-07T22:50:29.379Z,96.73
2017-10-07T22:52:55.598Z,97.21
2017-10-07T22:55:21.818Z,97.18
2017-10-07T22:57:48.061Z,96.50
2017-10-07T23:00:14.273Z,96.89
2017-10-07T23:02:40.474Z,97.48
2017-10-07T23:05:06.683Z,97.34
2017-10-07T23:07:32.903Z,97.17
2017-10-07T23:09:59.112Z,96.90
2017-10-07T23:12:25.528Z,96.66
2017-10-07T23:14:51.806Z,96.56
2017-10-07T23:17:18.052Z,96.80
2017-10-07T23:19:44.278Z,96.84
2017-10-07T23:22:10.958Z,96.85
2017-10-07T23:24:37.150Z,97.18
2017-10-07T23:27:03.348Z,96.97
2017-10-07T23:29:29.565Z,96.96
2017-10-07T23:31:55.803Z,96.37
2017-10-07T23:34:22.019Z,96.18
2017-10-07T23:36:48.250Z,96.64
2017-10-07T23:39:14.476Z,96.51
2017-10-07T23:41:40.699Z,96.45
2017-10-07T23:44:06.913Z,96.63
2017-10-07T23:46:33.124Z,96.77
2017-10-07T23:48:59.353Z,96.46
2017-10-07T23:51:25.600Z,96.20
2017-10-07T23:53:51.863Z,96.33
2017-10-07T23:56:18.085Z,96.25
2017-10-07T23:58:44.305Z,96.13
